Time;durP1;ratioP1;P1;durP2;ratioP2;P2;SDS_P1;SDS_P2;PMS_P1;PMS_P2;Temp;Humidity;BMP_temperature;BMP_pressure;BME280_temperature;BME280_humidity;BME280_pressure;Samples;Min_cycle;Max_cycle;Signal;HPM_P1;HPM_P2
2021/01/15 00:02:04;;;;;;;35.22;18.42;;;;;;;-0.13;97.90;102131.81;6336446;28;20048;-75
2021/01/15 00:05:07;;;;;;;35.10;19.27;;;;;;;-0.07;97.25;102137.03;6334444;28;20043;-75
2021/01/15 00:08:07;;;;;;;37.30;18.42;;;;;;;-0.14;97.46;102132.63;6332888;28;20048;-76
2021/01/15 00:11:15;;;;;;;37.13;17.70;;;;;;;-0.18;97.70;102123.09;6333753;28;20056;-76
2021/01/15 00:14:16;;;;;;;37.40;17.83;;;;;;;-0.16;97.64;102134.34;6335625;28;20047;-76
2021/01/15 00:17:18;;;;;;;37.80;18.08;;;;;;;-0.17;98.08;102120.56;6333809;28;20531;-76
2021/01/15 00:20:19;;;;;;;34.45;19.17;;;;;;;-0.10;98.41;102119.78;6333807;28;20093;-76
2021/01/15 00:23:20;;;;;;;36.70;19.38;;;;;;;-0.20;97.15;102122.22;6336007;28;20130;-76
2021/01/15 00:26:23;;;;;;;36.30;18.13;;;;;;;-0.18;97.18;102123.09;6347979;28;20412;-75
2021/01/15 00:29:24;;;;;;;35.60;18.63;;;;;;;-0.20;97.43;102122.22;6347688;28;20157;-76
2021/01/15 00:32:26;;;;;;;36.47;19.58;;;;;;;-0.18;98.71;102130.84;6348379;28;20062;-76
2021/01/15 00:35:27;;;;;;;45.05;20.50;;;;;;;-0.16;98.83;102124.88;6347782;28;20055;-76
2021/01/15 00:38:28;;;;;;;46.35;20.08;;;;;;;-0.14;99.03;102127.47;6328503;28;20083;-76
2021/01/15 00:41:29;;;;;;;42.28;20.20;;;;;;;-0.10;99.05;102135.28;6322161;28;20056;-76
2021/01/15 00:44:29;;;;;;;43.10;20.98;;;;;;;-0.08;98.15;102135.31;6322530;28;20059;-76
2021/01/15 00:47:32;;;;;;;35.47;18.75;;;;;;;-0.05;98.42;102130.16;6322210;28;20082;-76
2021/01/15 00:50:32;;;;;;;36.80;17.88;;;;;;;-0.09;98.05;102129.28;6321873;28;20109;-76
2021/01/15 00:53:33;;;;;;;35.15;18.02;;;;;;;-0.10;97.77;102132.69;6322295;28;20489;-77
2021/01/15 00:56:34;;;;;;;42.17;19.92;;;;;;;-0.15;98.35;102143.81;6321927;28;20090;-76
2021/01/15 00:59:35;;;;;;;37.75;19.60;;;;;;;-0.12;98.21;102138.72;6321812;28;20072;-76
2021/01/15 01:02:36;;;;;;;37.00;19.77;;;;;;;-0.09;98.57;102141.31;6322066;28;20059;-76
2021/01/15 01:05:37;;;;;;;41.28;18.33;;;;;;;-0.12;98.85;102147.31;6322015;28;20051;-76
2021/01/15 01:08:39;;;;;;;42.20;20.80;;;;;;;-0.10;98.86;102144.75;6321545;28;20047;-76
2021/01/15 01:11:39;;;;;;;40.75;20.48;;;;;;;-0.07;99.32;102148.25;6321973;28;20055;-76
2021/01/15 01:14:40;;;;;;;40.22;19.67;;;;;;;-0.14;98.81;102143.84;6321828;28;20048;-76
2021/01/15 01:17:42;;;;;;;46.42;20.73;;;;;;;-0.15;98.80;102149.84;6321586;28;20441;-76
2021/01/15 01:20:43;;;;;;;42.00;19.38;;;;;;;-0.12;98.71;102147.31;6321507;28;20511;-76
2021/01/15 01:23:44;;;;;;;42.10;19.38;;;;;;;-0.13;98.95;102145.59;6321476;28;20048;-76
2021/01/15 01:26:45;;;;;;;45.17;20.05;;;;;;;-0.14;98.87;102145.56;6321363;28;20412;-75
2021/01/15 01:29:46;;;;;;;40.92;20.60;;;;;;;-0.12;98.86;102149.03;6320977;28;20040;-76
2021/01/15 01:32:47;;;;;;;36.53;18.83;;;;;;;-0.14;98.87;102146.41;6321439;28;20055;-76
2021/01/15 01:35:49;;;;;;;43.47;19.98;;;;;;;-0.17;99.61;102151.56;6321380;28;20134;-75
2021/01/15 01:38:49;;;;;;;42.22;20.52;;;;;;;-0.10;100.00;102148.19;6321027;28;20048;-76
2021/01/15 01:41:50;;;;;;;41.65;19.48;;;;;;;-0.09;99.81;102149.06;6321355;28;20052;-76
2021/01/15 01:44:51;;;;;;;40.15;19.63;;;;;;;-0.09;99.73;102147.38;6321042;28;20068;-76
2021/01/15 01:47:56;;;;;;;35.85;17.92;;;;;;;-0.05;99.25;102140.50;6320978;28;20052;-76
2021/01/15 01:50:57;;;;;;;33.67;17.20;;;;;;;-0.10;99.13;102152.50;6320790;28;20104;-76
2021/01/15 01:53:59;;;;;;;37.60;19.02;;;;;;;-0.07;100.00;102152.53;6321204;28;20052;-76
2021/01/15 01:57:01;;;;;;;35.90;16.60;;;;;;;-0.01;98.87;102153.47;6320775;28;20048;-76
2021/01/15 02:00:03;;;;;;;38.42;18.70;;;;;;;-0.10;98.94;102155.94;6320703;28;20051;-75
2021/01/15 02:03:04;;;;;;;37.17;19.67;;;;;;;-0.11;98.83;102158.53;6320972;28;20044;-75
2021/01/15 02:06:06;;;;;;;37.72;17.92;;;;;;;-0.07;99.67;102168.06;6320805;28;20048;-77
2021/01/15 02:09:07;;;;;;;33.72;16.15;;;;;;;-0.10;98.84;102168.00;6320673;28;20051;-76
2021/01/15 02:12:19;;;;;;;34.25;16.95;;;;;;;-0.11;99.04;102154.22;6320960;28;20485;-75
2021/01/15 02:15:25;;;;;;;36.80;17.80;;;;;;;-0.13;99.34;102170.56;6320873;28;20109;-76
2021/01/15 02:18:32;;;;;;;31.63;16.70;;;;;;;-0.07;98.27;102162.88;6320517;28;20044;-76
2021/01/15 02:21:57;;;;;;;30.40;14.55;;;;;;;-0.16;98.32;102166.22;6320468;28;20105;-76
2021/01/15 02:25:18;;;;;;;37.55;16.55;;;;;;;-0.17;99.64;102168.78;6320910;28;20056;-76
2021/01/15 02:28:33;;;;;;;36.15;15.98;;;;;;;-0.16;98.64;102173.97;6320606;28;20040;-75
2021/01/15 02:32:09;;;;;;;30.45;15.95;;;;;;;-0.14;98.56;102176.56;6320378;28;20056;-76
2021/01/15 02:35:25;;;;;;;31.58;14.73;;;;;;;-0.19;98.76;102176.50;6320638;28;20075;-77
2021/01/15 02:38:39;;;;;;;31.30;15.40;;;;;;;-0.18;99.20;102178.25;6320249;28;20044;-76
2021/01/15 02:41:41;;;;;;;31.90;16.48;;;;;;;-0.24;99.10;102170.41;6320792;28;20059;-77
2021/01/15 02:44:43;;;;;;;30.83;15.75;;;;;;;-0.26;99.18;102185.03;6346448;22;20044;-82
2021/01/15 02:47:48;;;;;;;32.80;16.35;;;;;;;-0.25;98.87;102186.75;6325223;28;20105;-82
2021/01/15 02:50:50;;;;;;;35.70;15.88;;;;;;;-0.26;99.86;102187.59;6324777;28;20450;-82
2021/01/15 02:53:51;;;;;;;29.67;14.82;;;;;;;-0.19;99.81;102185.97;6325380;28;20048;-82
2021/01/15 02:56:52;;;;;;;35.40;17.27;;;;;;;-0.17;99.80;102192.91;6324702;28;20109;-82
2021/01/15 02:59:53;;;;;;;30.10;15.10;;;;;;;-0.20;99.69;102190.25;6324951;28;20412;-82
2021/01/15 03:03:01;;;;;;;34.00;16.20;;;;;;;-0.19;99.87;102194.56;6325081;28;20052;-82
2021/01/15 03:06:06;;;;;;;37.00;16.08;;;;;;;-0.16;100.00;102192.03;6324552;28;20055;-82
2021/01/15 03:09:09;;;;;;;28.75;15.48;;;;;;;-0.15;100.00;102203.25;6324710;28;20059;-81
2021/01/15 03:12:10;;;;;;;32.42;15.68;;;;;;;-0.17;99.79;102190.31;6324670;28;20055;-81
2021/01/15 03:15:14;;;;;;;32.10;15.57;;;;;;;-0.16;99.71;102202.38;6324798;28;20048;-82
2021/01/15 03:18:17;;;;;;;32.60;14.25;;;;;;;-0.12;99.45;102192.97;6324071;28;20040;-81
2021/01/15 03:21:19;;;;;;;28.83;15.15;;;;;;;-0.13;99.57;102201.56;6324367;28;20121;-81
2021/01/15 03:24:20;;;;;;;36.28;14.10;;;;;;;-0.15;99.17;102203.25;6324434;28;20052;-81
2021/01/15 03:27:22;;;;;;;39.38;14.93;;;;;;;-0.16;99.31;102202.38;6324305;28;20043;-82
2021/01/15 03:30:25;;;;;;;26.70;13.77;;;;;;;-0.22;99.55;102210.06;6323606;28;20531;-81
2021/01/15 03:33:26;;;;;;;27.65;14.85;;;;;;;-0.24;99.38;102206.56;6311054;28;20044;-82
2021/01/15 03:36:27;;;;;;;31.08;15.05;;;;;;;-0.22;99.43;102210.06;6323496;28;20493;-81
2021/01/15 03:39:28;;;;;;;27.20;12.90;;;;;;;-0.25;99.14;102212.56;6323482;28;20072;-82
2021/01/15 03:42:29;;;;;;;25.42;13.93;;;;;;;-0.30;98.88;102220.25;6324073;28;20055;-81
2021/01/15 03:45:30;;;;;;;31.05;14.55;;;;;;;-0.32;99.32;102216.78;6323387;28;20431;-81
2021/01/15 03:48:31;;;;;;;24.90;13.52;;;;;;;-0.32;99.23;102219.38;6323576;28;20044;-81
2021/01/15 03:51:32;;;;;;;27.27;13.80;;;;;;;-0.30;99.37;102214.22;6323376;28;20067;-81
2021/01/15 03:54:33;;;;;;;28.73;14.93;;;;;;;-0.31;99.25;102222.81;6323609;28;20069;-80
2021/01/15 03:57:34;;;;;;;24.10;14.07;;;;;;;-0.31;98.89;102217.66;6323468;28;20122;-81
2021/01/15 04:00:35;;;;;;;28.45;14.43;;;;;;;-0.35;99.99;102221.91;6323296;28;20044;-81
2021/01/15 04:03:37;;;;;;;26.58;14.57;;;;;;;-0.36;99.49;102222.75;6323641;28;20131;-81
2021/01/15 04:06:38;;;;;;;29.17;14.98;;;;;;;-0.37;99.41;102220.13;6322810;28;20253;-81
2021/01/15 04:09:39;;;;;;;31.63;15.43;;;;;;;-0.37;99.17;102226.16;6323200;28;20040;-81
2021/01/15 04:12:41;;;;;;;25.58;14.13;;;;;;;-0.37;99.58;102226.16;6323494;28;20048;-81
2021/01/15 04:15:42;;;;;;;29.40;14.38;;;;;;;-0.34;99.44;102227.94;6323038;28;20048;-80
2021/01/15 04:18:44;;;;;;;29.88;15.82;;;;;;;-0.32;99.41;102233.97;6322614;28;20460;-81
2021/01/15 04:21:45;;;;;;;29.48;15.45;;;;;;;-0.33;99.47;102230.53;6322861;28;20553;-81
2021/01/15 04:24:46;;;;;;;32.38;14.63;;;;;;;-0.31;99.48;102235.75;6322781;28;20044;-81
2021/01/15 04:27:46;;;;;;;33.40;15.70;;;;;;;-0.29;99.72;102236.63;6322710;28;20080;-81
2021/01/15 04:30:47;;;;;;;32.10;16.20;;;;;;;-0.32;99.98;102240.03;6322389;28;20048;-81
2021/01/15 04:33:49;;;;;;;32.95;16.23;;;;;;;-0.27;100.00;102250.44;6322871;28;20524;-81
2021/01/15 04:36:50;;;;;;;29.58;15.23;;;;;;;-0.20;98.88;102249.69;6322375;28;20185;-81
2021/01/15 04:39:51;;;;;;;32.38;15.98;;;;;;;-0.33;98.45;102248.63;6322365;28;20123;-81
2021/01/15 04:42:57;;;;;;;30.90;15.07;;;;;;;-0.28;98.43;102259.00;6322548;28;20039;-80
2021/01/15 04:45:58;;;;;;;32.78;16.50;;;;;;;-0.26;99.58;102260.78;6322287;28;20382;-81
2021/01/15 04:49:03;;;;;;;34.38;16.95;;;;;;;-0.27;98.69;102260.78;6322060;28;20071;-81
2021/01/15 04:52:10;;;;;;;35.22;17.13;;;;;;;-0.32;99.25;102259.81;6322499;28;20048;-80
2021/01/15 04:55:17;;;;;;;31.98;16.15;;;;;;;-0.29;99.61;102263.31;6320321;28;20044;-79
2021/01/15 04:58:19;;;;;;;36.85;17.60;;;;;;;-0.27;99.13;102266.81;6313348;28;20146;-81
2021/01/15 05:01:22;;;;;;;36.88;16.08;;;;;;;-0.20;98.82;102265.19;6313209;28;20052;-79
2021/01/15 05:04:25;;;;;;;33.08;16.25;;;;;;;-0.15;97.52;102266.09;6321751;28;20051;-81
2021/01/15 05:07:27;;;;;;;42.05;16.05;;;;;;;-0.10;97.74;102279.97;6321135;28;20048;-80
2021/01/15 05:10:29;;;;;;;29.63;15.20;;;;;;;-0.13;97.39;102272.19;6321611;28;20056;-81
2021/01/15 05:13:35;;;;;;;32.53;16.60;;;;;;;-0.13;97.22;102276.50;6322001;28;20055;-81
2021/01/15 05:16:38;;;;;;;30.50;15.68;;;;;;;-0.16;97.77;102272.13;6321584;28;20055;-81
2021/01/15 05:19:41;;;;;;;37.65;17.13;;;;;;;-0.18;98.23;102280.69;6321495;28;20051;-80
2021/01/15 05:22:42;;;;;;;31.55;15.27;;;;;;;-0.15;97.96;102284.19;6313195;28;20185;-81
2021/01/15 05:25:45;;;;;;;28.05;15.23;;;;;;;-0.13;97.52;102282.53;6321756;28;20055;-80
2021/01/15 05:28:49;;;;;;;32.88;15.98;;;;;;;-0.11;97.22;102285.13;6321132;28;20492;-81
2021/01/15 05:31:52;;;;;;;28.90;14.75;;;;;;;-0.11;97.18;102283.41;6321804;28;20052;-81
2021/01/15 05:34:53;;;;;;;35.95;16.70;;;;;;;-0.25;97.29;102284.91;6321035;28;20055;-81
2021/01/15 05:37:56;;;;;;;35.10;15.75;;;;;;;-0.20;97.65;102287.56;6321273;28;20050;-81
2021/01/15 05:40:57;;;;;;;36.08;16.35;;;;;;;-0.21;97.05;102286.69;6321131;28;20048;-80
2021/01/15 05:43:58;;;;;;;30.42;14.57;;;;;;;-0.07;96.84;102294.66;6321162;28;20062;-81
2021/01/15 05:47:00;;;;;;;32.75;15.23;;;;;;;-0.20;96.56;102296.19;6321032;28;20054;-81
2021/01/15 05:50:02;;;;;;;33.20;17.15;;;;;;;-0.21;97.26;102297.03;6320687;28;20044;-80
2021/01/15 05:53:03;;;;;;;33.25;15.43;;;;;;;-0.18;97.85;102294.50;6321238;28;20397;-81
2021/01/15 05:56:05;;;;;;;32.05;16.77;;;;;;;-0.18;97.54;102296.19;6320724;28;20094;-81
2021/01/15 05:59:07;;;;;;;33.08;15.68;;;;;;;-0.21;97.81;102297.03;6320834;28;20493;-81
2021/01/15 06:02:09;;;;;;;34.85;16.13;;;;;;;-0.27;98.41;102292.63;6320923;28;20079;-81
2021/01/15 06:05:16;;;;;;;33.05;16.30;;;;;;;-0.18;98.13;102294.50;6320666;28;20499;-81
2021/01/15 06:08:17;;;;;;;37.05;15.75;;;;;;;-0.18;98.14;102303.94;6320617;28;20492;-81
2021/01/15 06:11:22;;;;;;;32.85;16.27;;;;;;;-0.26;98.06;102306.41;6320755;28;20081;-81
2021/01/15 06:14:25;;;;;;;31.23;15.43;;;;;;;-0.13;99.07;102300.59;6320871;28;20553;-81
2021/01/15 06:17:26;;;;;;;32.40;16.15;;;;;;;-0.13;98.12;102299.75;6320820;28;20484;-81
2021/01/15 06:20:27;;;;;;;35.00;17.42;;;;;;;-0.17;97.55;102310.88;6325563;28;20131;-81
2021/01/15 06:23:32;;;;;;;35.20;17.90;;;;;;;-0.19;99.05;102305.66;6325801;28;20051;-81
2021/01/15 06:26:35;;;;;;;37.40;18.23;;;;;;;-0.21;98.07;102306.50;6325785;28;20052;-80
2021/01/15 06:29:44;;;;;;;39.35;19.10;;;;;;;-0.18;98.99;102314.28;6325289;28;20044;-81
2021/01/15 06:32:46;;;;;;;43.17;20.60;;;;;;;-0.20;99.29;102314.25;6325855;28;20463;-81
2021/01/15 06:35:48;;;;;;;36.70;19.17;;;;;;;-0.14;99.06;102316.06;6325180;28;20052;-81
2021/01/15 06:38:49;;;;;;;41.05;20.10;;;;;;;-0.24;99.80;102319.34;6325038;28;20488;-81
2021/01/15 06:42:01;;;;;;;42.95;20.23;;;;;;;-0.20;99.85;102318.56;6325491;28;20048;-81
2021/01/15 06:45:13;;;;;;;40.13;19.73;;;;;;;-0.14;100.00;102328.97;6325510;28;20135;-81
2021/01/15 06:48:15;;;;;;;44.15;21.33;;;;;;;-0.14;99.76;102323.81;6325188;28;20131;-81
2021/01/15 06:51:19;;;;;;;49.35;22.13;;;;;;;-0.17;100.00;102336.72;6325035;28;20044;-81
2021/01/15 06:54:26;;;;;;;37.70;19.02;;;;;;;-0.17;100.00;102328.97;6323964;28;20059;-81
2021/01/15 06:57:30;;;;;;;45.50;22.35;;;;;;;-0.07;99.82;102331.69;6324590;28;20044;-80
2021/01/15 07:00:36;;;;;;;35.28;19.00;;;;;;;0.05;99.19;102338.78;6324567;28;20097;-75
2021/01/15 07:04:18;;;;;;;41.08;19.52;;;;;;;-0.04;98.48;102333.47;6324735;28;20489;-76
2021/01/15 07:07:20;;;;;;;39.15;19.33;;;;;;;-0.04;98.07;102342.09;6324238;28;20052;-79
2021/01/15 07:10:21;;;;;;;41.17;19.48;;;;;;;-0.10;99.29;102343.69;6324311;28;20462;-80
2021/01/15 07:13:28;;;;;;;39.67;18.67;;;;;;;-0.11;99.52;102348.00;6324429;28;20054;-81
2021/01/15 07:16:32;;;;;;;43.78;20.10;;;;;;;-0.14;99.58;102342.75;6324207;28;20169;-80
2021/01/15 07:19:35;;;;;;;46.85;21.65;;;;;;;-0.06;99.96;102350.66;6324043;28;20052;-81
2021/01/15 07:22:42;;;;;;;37.83;18.60;;;;;;;-0.07;99.10;102352.38;6324625;28;20135;-80
2021/01/15 07:25:48;;;;;;;41.08;18.85;;;;;;;-0.10;99.57;102356.63;6324272;28;20271;-80
2021/01/15 07:28:57;;;;;;;42.55;19.88;;;;;;;-0.03;99.39;102354.16;6323322;28;20055;-80
2021/01/15 07:32:03;;;;;;;38.97;18.95;;;;;;;-0.05;99.75;102355.84;6324243;28;20408;-80
2021/01/15 07:35:05;;;;;;;42.75;19.27;;;;;;;0.02;99.17;102359.41;6324076;28;20048;-80
2021/01/15 07:38:11;;;;;;;37.75;18.58;;;;;;;0.05;98.77;102358.59;6323444;28;20056;-80
2021/01/15 07:41:37;;;;;;;34.20;18.05;;;;;;;0.04;97.64;102364.59;6323197;28;20050;-80
2021/01/15 07:44:39;;;;;;;39.90;18.67;;;;;;;-0.01;98.04;102369.69;6315101;28;20054;-80
2021/01/15 07:47:40;;;;;;;34.88;16.55;;;;;;;0.06;98.54;102375.84;6315158;28;20048;-80
2021/01/15 07:50:43;;;;;;;42.20;19.35;;;;;;;0.04;98.76;102369.75;6323375;28;20040;-80
2021/01/15 07:53:46;;;;;;;32.88;16.92;;;;;;;0.11;97.78;102377.66;6323950;28;20477;-80
2021/01/15 07:56:46;;;;;;;35.47;17.27;;;;;;;0.11;97.91;102380.22;6323222;28;20044;-80
2021/01/15 07:59:47;;;;;;;33.95;17.23;;;;;;;0.04;98.06;102387.84;6323206;28;20100;-80
2021/01/15 08:02:49;;;;;;;34.70;16.42;;;;;;;0.10;97.18;102387.97;6322634;28;20044;-80
2021/01/15 08:05:57;;;;;;;33.47;16.35;;;;;;;0.03;97.64;102393.88;6315726;28;20048;-80
2021/01/15 08:09:03;;;;;;;39.10;17.00;;;;;;;0.01;96.75;102391.28;6322974;28;20044;-80
2021/01/15 08:12:04;;;;;;;37.65;18.42;;;;;;;0.16;97.67;102400.97;6323136;28;20044;-80
2021/01/15 08:15:30;;;;;;;38.92;17.98;;;;;;;0.07;97.48;102403.41;6320137;28;20063;-80
2021/01/15 08:18:32;;;;;;;37.58;17.33;;;;;;;0.03;97.65;102402.50;6314121;28;20433;-80
2021/01/15 08:21:33;;;;;;;39.92;18.40;;;;;;;0.02;97.90;102400.75;6320892;28;20052;-81
2021/01/15 08:24:43;;;;;;;39.17;17.88;;;;;;;0.03;98.04;102411.97;6323201;28;20089;-79
2021/01/15 08:27:46;;;;;;;34.65;16.90;;;;;;;0.01;97.59;102406.78;6320875;28;20063;-80
2021/01/15 08:30:58;;;;;;;38.25;17.83;;;;;;;0.05;97.54;102412.88;6322132;28;20069;-79
2021/01/15 08:34:08;;;;;;;42.20;17.15;;;;;;;0.00;97.14;102412.78;6322858;28;20044;-79
2021/01/15 08:37:10;;;;;;;39.20;17.70;;;;;;;0.08;97.86;102416.34;6322426;28;20089;-79
2021/01/15 08:40:12;;;;;;;37.25;17.27;;;;;;;0.01;97.71;102424.00;6313724;28;20044;-79
2021/01/15 08:43:12;;;;;;;33.75;16.67;;;;;;;-0.03;97.29;102429.09;6297164;28;20048;-79
2021/01/15 08:46:18;;;;;;;33.90;16.05;;;;;;;-0.01;97.50;102430.00;6297051;28;20102;-79
2021/01/15 08:49:19;;;;;;;30.10;15.27;;;;;;;-0.01;96.60;102429.13;6296397;28;20045;-80
2021/01/15 08:52:23;;;;;;;31.50;15.30;;;;;;;-0.06;97.05;102434.22;6297379;28;20497;-80
2021/01/15 08:55:25;;;;;;;33.10;15.82;;;;;;;-0.02;97.77;102442.88;6296866;28;20075;-80
2021/01/15 08:58:26;;;;;;;33.17;15.23;;;;;;;-0.01;96.91;102440.31;6319490;22;20413;-76
2021/01/15 09:01:29;;;;;;;30.58;15.90;;;;;;;-0.06;96.91;102451.44;6293881;28;20416;-75
2021/01/15 09:04:32;;;;;;;32.75;15.02;;;;;;;-0.04;96.32;102454.94;6321636;28;20094;-75
2021/01/15 09:07:42;;;;;;;36.90;16.02;;;;;;;-0.09;96.30;102454.84;6321602;28;20082;-75
2021/01/15 09:10:47;;;;;;;32.58;15.80;;;;;;;-0.08;96.88;102453.13;6321802;28;20139;-75
2021/01/15 09:13:49;;;;;;;34.75;16.20;;;;;;;-0.06;97.50;102461.75;6321814;28;20527;-74
2021/01/15 09:16:53;;;;;;;36.78;16.13;;;;;;;-0.02;97.45;102463.56;6321623;28;20048;-75
2021/01/15 09:19:54;;;;;;;31.15;15.60;;;;;;;-0.02;96.74;102460.97;6321162;28;20048;-75
2021/01/15 09:22:54;;;;;;;26.98;14.15;;;;;;;0.01;96.15;102465.34;6321879;28;20067;-75
2021/01/15 09:25:55;;;;;;;26.23;13.52;;;;;;;-0.02;95.35;102463.56;6321422;28;20048;-75
2021/01/15 09:28:56;;;;;;;31.17;14.50;;;;;;;-0.04;96.14;102465.25;6297998;28;20063;-75
2021/01/15 09:31:58;;;;;;;28.52;14.82;;;;;;;0.02;95.93;102475.69;6313870;28;20059;-75
2021/01/15 09:34:59;;;;;;;27.98;14.18;;;;;;;0.04;95.90;102474.00;6309321;28;20090;-75
2021/01/15 09:38:00;;;;;;;28.50;14.38;;;;;;;0.02;95.14;102474.84;6300801;28;20133;-75
2021/01/15 09:41:06;;;;;;;26.15;13.95;;;;;;;0.02;94.62;102491.22;6295679;28;20049;-75
2021/01/15 09:44:07;;;;;;;28.27;14.70;;;;;;;0.00;95.32;102490.31;6296344;28;20060;-75
2021/01/15 09:47:09;;;;;;;29.63;15.82;;;;;;;0.02;95.28;102495.50;6315486;28;20429;-73
2021/01/15 09:50:11;;;;;;;35.40;15.18;;;;;;;-0.01;94.95;102496.31;6310805;28;20090;-75
2021/01/15 09:53:12;;;;;;;26.92;14.93;;;;;;;-0.02;96.20;102498.03;6305457;28;20052;-77
2021/01/15 09:56:21;;;;;;;24.73;13.70;;;;;;;-0.01;96.04;102497.19;6307699;28;20098;-74
2021/01/15 09:59:22;;;;;;;27.73;13.60;;;;;;;0.03;95.07;102492.94;6319643;28;20052;-74
2021/01/15 10:02:23;;;;;;;30.85;14.05;;;;;;;0.01;95.58;102484.31;6319671;28;20052;-74
2021/01/15 10:05:25;;;;;;;32.92;14.75;;;;;;;0.01;95.97;102480.84;6321016;28;20040;-74
2021/01/15 10:08:25;;;;;;;32.80;15.57;;;;;;;0.04;97.00;102476.59;6320464;28;20044;-76
2021/01/15 10:11:28;;;;;;;31.50;15.30;;;;;;;0.06;95.89;102480.09;6320298;28;20420;-75
2021/01/15 10:14:29;;;;;;;27.15;14.93;;;;;;;0.06;95.81;102484.38;6320903;28;20047;-74
2021/01/15 10:17:31;;;;;;;27.02;13.40;;;;;;;0.12;94.67;102487.94;6320295;28;20133;-74
2021/01/15 10:20:32;;;;;;;28.65;14.90;;;;;;;0.13;93.87;102492.25;6320308;28;20074;-77
2021/01/15 10:23:34;;;;;;;26.42;13.35;;;;;;;0.17;93.48;102493.19;6319988;28;20055;-73
2021/01/15 10:26:36;;;;;;;26.05;13.55;;;;;;;0.15;92.10;102492.31;6320124;28;20412;-72
2021/01/15 10:29:37;;;;;;;30.10;14.45;;;;;;;0.23;92.25;102494.19;6319482;28;20044;-76
2021/01/15 10:32:39;;;;;;;24.23;13.00;;;;;;;0.21;91.38;102488.09;6320277;28;20448;-76
2021/01/15 10:35:40;;;;;;;27.08;12.10;;;;;;;0.21;91.27;102492.41;6320525;28;20075;-74
2021/01/15 10:38:41;;;;;;;28.85;13.88;;;;;;;0.09;91.99;102490.50;6319963;28;20052;-76
2021/01/15 10:41:44;;;;;;;22.88;12.40;;;;;;;0.18;91.23;102497.50;6320439;28;20090;-73
2021/01/15 10:44:45;;;;;;;29.33;13.88;;;;;;;0.15;92.17;102497.47;6320703;28;20493;-75
2021/01/15 10:47:46;;;;;;;33.08;14.50;;;;;;;0.11;93.32;102504.28;6319990;28;20051;-75
2021/01/15 10:50:47;;;;;;;38.20;23.40;;;;;;;0.13;92.27;102507.75;6320193;28;20424;-74
2021/01/15 10:53:48;;;;;;;30.85;16.25;;;;;;;0.09;92.82;102508.59;6318805;28;20056;-74
2021/01/15 10:56:51;;;;;;;28.60;13.50;;;;;;;0.02;92.59;102506.72;6320443;28;20051;-74
2021/01/15 10:59:52;;;;;;;29.27;13.02;;;;;;;0.09;92.09;102511.16;6319853;28;20204;-77
2021/01/15 11:02:54;;;;;;;28.27;13.60;;;;;;;0.13;92.10;102501.72;6320304;28;20048;-74
2021/01/15 11:05:55;;;;;;;23.67;13.43;;;;;;;0.07;91.68;102511.97;6324330;28;20067;-75
2021/01/15 11:08:55;;;;;;;26.50;13.75;;;;;;;0.11;91.54;102509.47;6324564;28;20143;-75
2021/01/15 11:11:58;;;;;;;24.35;12.90;;;;;;;0.14;90.12;102506.09;6324895;28;20059;-74
2021/01/15 11:14:59;;;;;;;25.60;13.13;;;;;;;0.18;88.97;102501.00;6324736;28;20409;-77
2021/01/15 11:18:00;;;;;;;24.83;13.25;;;;;;;0.05;89.82;102506.78;6324412;28;20048;-74
2021/01/15 11:21:01;;;;;;;25.27;14.15;;;;;;;0.10;90.37;102505.16;6324193;28;20091;-76
2021/01/15 11:24:03;;;;;;;25.15;14.45;;;;;;;0.05;89.81;102505.91;6324640;28;20055;-77
2021/01/15 11:27:05;;;;;;;26.02;13.45;;;;;;;0.06;89.00;102511.09;6324230;28;20060;-77
2021/01/15 11:30:07;;;;;;;24.95;13.52;;;;;;;0.15;89.47;102513.00;6323855;28;20063;-75
2021/01/15 11:33:08;;;;;;;26.77;13.93;;;;;;;0.10;89.33;102506.88;6324207;28;20048;-75
2021/01/15 11:36:10;;;;;;;21.52;12.80;;;;;;;0.09;88.74;102500.84;6323923;28;20047;-75
2021/01/15 11:39:12;;;;;;;23.33;11.68;;;;;;;0.13;85.75;102504.31;6323808;28;20109;-78
2021/01/15 11:42:12;;;;;;;29.65;12.55;;;;;;;-0.06;86.91;102511.72;6323794;28;20063;-77
2021/01/15 11:45:14;;;;;;;26.23;11.55;;;;;;;0.02;86.89;102508.44;6324156;28;20500;-77
2021/01/15 11:48:16;;;;;;;22.02;11.70;;;;;;;0.04;85.60;102511.91;6323586;28;20047;-79
2021/01/15 11:51:17;;;;;;;24.20;12.38;;;;;;;-0.04;85.52;102514.38;6313398;28;20048;-76
2021/01/15 11:54:18;;;;;;;26.58;14.57;;;;;;;-0.15;88.05;102508.97;6316368;28;20453;-77
2021/01/15 11:57:19;;;;;;;23.92;11.95;;;;;;;-0.01;86.85;102514.41;6298586;28;20109;-77
2021/01/15 12:00:21;;;;;;;22.38;12.65;;;;;;;-0.06;86.55;102506.56;6317003;28;20052;-75
2021/01/15 12:03:23;;;;;;;25.45;11.43;;;;;;;0.01;85.90;102501.53;6323976;28;20071;-75
2021/01/15 12:06:24;;;;;;;22.25;11.57;;;;;;;-0.06;86.17;102505.69;6323280;28;20063;-75
2021/01/15 12:09:25;;;;;;;28.15;11.90;;;;;;;-0.04;83.89;102507.47;6323065;28;20044;-75
2021/01/15 12:12:25;;;;;;;25.38;12.93;;;;;;;-0.10;83.95;102509.94;6323554;28;20056;-78
2021/01/15 12:15:26;;;;;;;24.27;12.70;;;;;;;-0.17;85.60;102518.41;6323353;28;20113;-78
2021/01/15 12:18:28;;;;;;;25.33;13.30;;;;;;;-0.16;85.14;102515.00;6323161;28;20051;-75
2021/01/15 12:21:29;;;;;;;28.10;14.45;;;;;;;-0.12;86.00;102515.94;6322673;28;20504;-76
2021/01/15 12:24:30;;;;;;;27.90;13.18;;;;;;;-0.11;85.64;102509.91;6318093;28;20050;-76
2021/01/15 12:27:31;;;;;;;23.83;11.63;;;;;;;-0.06;81.68;102514.31;6321311;28;20078;-76
2021/01/15 12:30:32;;;;;;;28.92;15.27;;;;;;;-0.17;83.09;102515.84;6320977;28;20512;-76
2021/01/15 12:33:34;;;;;;;25.55;12.15;;;;;;;-0.09;83.02;102518.53;6311063;28;20052;-77
2021/01/15 12:36:34;;;;;;;21.48;11.07;;;;;;;-0.13;82.84;102512.47;6322646;28;20051;-75
2021/01/15 12:39:35;;;;;;;21.23;10.50;;;;;;;-0.18;82.23;102508.03;6314936;28;20131;-73
2021/01/15 12:42:36;;;;;;;23.75;10.27;;;;;;;-0.06;80.35;102503.13;6301031;28;20056;-75
2021/01/15 12:45:39;;;;;;;16.83;9.10;;;;;;;-0.16;80.20;102503.78;6297849;28;20071;-79
2021/01/15 12:48:40;;;;;;;18.67;9.18;;;;;;;-0.31;80.03;102494.91;6296317;28;20053;-78
2021/01/15 12:51:42;;;;;;;16.75;8.48;;;;;;;-0.28;78.25;102489.78;6297190;28;20060;-76
2021/01/15 12:54:43;;;;;;;21.58;9.73;;;;;;;-0.31;79.69;102491.44;6296892;28;20139;-76
2021/01/15 12:57:43;;;;;;;17.60;8.38;;;;;;;-0.31;78.10;102488.88;6301601;28;20052;-77
2021/01/15 13:00:47;;;;;;;17.50;8.38;;;;;;;-0.23;78.04;102494.16;6312521;28;20051;-77
2021/01/15 13:03:48;;;;;;;17.83;8.43;;;;;;;-0.22;74.54;102488.19;6313764;28;20052;-78
2021/01/15 13:06:49;;;;;;;15.40;7.95;;;;;;;-0.21;75.00;102501.13;6321632;28;20055;-76
2021/01/15 13:09:50;;;;;;;15.30;7.63;;;;;;;-0.19;74.05;102502.00;6321295;28;20075;-77
2021/01/15 13:12:51;;;;;;;18.92;8.45;;;;;;;-0.31;75.60;102500.06;6321699;28;20127;-77
2021/01/15 13:15:52;;;;;;;18.52;8.63;;;;;;;-0.41;77.28;102495.56;6321243;28;20062;-76
2021/01/15 13:18:54;;;;;;;21.83;8.98;;;;;;;-0.40;76.89;102499.03;6321024;28;20044;-75
2021/01/15 13:21:55;;;;;;;20.23;9.07;;;;;;;-0.32;75.73;102500.91;6321388;28;20052;-76
2021/01/15 13:24:56;;;;;;;18.55;8.60;;;;;;;-0.28;76.82;102496.66;6321718;28;20055;-76
2021/01/15 13:27:59;;;;;;;17.65;8.20;;;;;;;-0.27;76.58;102496.72;6320141;28;20048;-79
2021/01/15 13:31:00;;;;;;;17.55;9.30;;;;;;;-0.34;75.70;102493.97;6320718;28;20063;-76
2021/01/15 13:34:02;;;;;;;17.17;8.57;;;;;;;-0.33;77.84;102493.13;6320838;28;20055;-75
2021/01/15 13:37:03;;;;;;;17.17;9.35;;;;;;;-0.29;79.00;102500.09;6320569;28;20059;-75
2021/01/15 13:40:06;;;;;;;21.23;8.85;;;;;;;-0.33;77.64;102503.44;6320610;28;20130;-76
2021/01/15 13:43:07;;;;;;;16.38;8.40;;;;;;;-0.37;76.82;102499.94;6320895;28;20055;-76
2021/01/15 13:46:08;;;;;;;20.50;9.40;;;;;;;-0.39;79.01;102506.78;6320826;28;20135;-76
2021/01/15 13:49:09;;;;;;;18.73;8.80;;;;;;;-0.28;77.86;102509.56;6320342;28;20040;-77
2021/01/15 13:52:10;;;;;;;18.10;8.68;;;;;;;-0.30;77.83;102516.44;6321012;28;20052;-77
2021/01/15 13:55:13;;;;;;;16.50;8.02;;;;;;;-0.26;75.16;102511.38;6320685;28;20458;-75